Oatville, Kansas
Current Conditions -  °F | °C
As of 7:53 PM on Saturday 20 Dec 2014 (Local Time) from KICT Reporting Station
Overcast Overcast  
Wind Chill: 39°   Ceiling: 1600
Heat Index: 44°   Visibility: 8mi
Dew Point: 37°   Wind: 10mph
Humidity: 76%   Direction: 190°S
Pressure: 30.11"   Gusts: NA
Location:  37.6181°N, 97.4387°W
Report Text: KICT 210153Z 19009KT 8SM OVC016 07/03 A3011 RMK AO2 SLP202 T00670028 $
Loading
Personal Weather Stations






























Interactive Weather Map New forecast layout! Learn more

10-Day Weather Forecast

Advertisements
Track Severe Weather on mobile